sensor_id;sensor_type;location;lat;lon;timestamp;P1;durP1;ratioP1;P2;durP2;ratioP2
11817;SDS011;5966;52.402;5.322;2022-11-23T00:00:43;7.70;;;5.50;;
11817;SDS011;5966;52.402;5.322;2022-11-23T00:03:13;6.60;;;5.40;;
11817;SDS011;5966;52.402;5.322;2022-11-23T00:05:41;8.43;;;5.53;;
11817;SDS011;5966;52.402;5.322;2022-11-23T00:08:08;7.30;;;5.40;;
11817;SDS011;5966;52.402;5.322;2022-11-23T00:10:36;9.27;;;6.27;;
11817;SDS011;5966;52.402;5.322;2022-11-23T00:13:04;7.73;;;5.77;;
11817;SDS011;5966;52.402;5.322;2022-11-23T00:15:32;10.67;;;6.33;;
11817;SDS011;5966;52.402;5.322;2022-11-23T00:18:00;11.60;;;6.07;;
11817;SDS011;5966;52.402;5.322;2022-11-23T00:20:30;8.63;;;6.70;;
11817;SDS011;5966;52.402;5.322;2022-11-23T00:22:58;8.90;;;6.87;;
11817;SDS011;5966;52.402;5.322;2022-11-23T00:25:25;10.53;;;7.07;;
11817;SDS011;5966;52.402;5.322;2022-11-23T00:27:54;10.57;;;7.33;;
11817;SDS011;5966;52.402;5.322;2022-11-23T00:30:22;11.67;;;7.57;;
11817;SDS011;5966;52.402;5.322;2022-11-23T00:32:50;9.10;;;6.67;;
11817;SDS011;5966;52.402;5.322;2022-11-23T00:35:18;9.93;;;7.57;;
11817;SDS011;5966;52.402;5.322;2022-11-23T00:37:47;11.40;;;7.80;;
11817;SDS011;5966;52.402;5.322;2022-11-23T00:40:15;10.23;;;7.73;;
11817;SDS011;5966;52.402;5.322;2022-11-23T00:42:43;9.23;;;7.67;;
11817;SDS011;5966;52.402;5.322;2022-11-23T00:45:11;11.63;;;7.93;;
11817;SDS011;5966;52.402;5.322;2022-11-23T00:47:39;11.50;;;7.87;;
11817;SDS011;5966;52.402;5.322;2022-11-23T00:50:07;10.77;;;8.37;;
11817;SDS011;5966;52.402;5.322;2022-11-23T00:52:36;10.97;;;8.97;;
11817;SDS011;5966;52.402;5.322;2022-11-23T00:55:05;13.00;;;8.57;;
11817;SDS011;5966;52.402;5.322;2022-11-23T00:57:34;10.20;;;8.40;;
11817;SDS011;5966;52.402;5.322;2022-11-23T01:00:02;15.30;;;8.70;;
11817;SDS011;5966;52.402;5.322;2022-11-23T01:02:32;12.43;;;9.17;;
11817;SDS011;5966;52.402;5.322;2022-11-23T01:05:01;12.60;;;8.80;;
11817;SDS011;5966;52.402;5.322;2022-11-23T01:07:29;12.53;;;9.60;;
11817;SDS011;5966;52.402;5.322;2022-11-23T01:09:57;11.63;;;9.30;;
11817;SDS011;5966;52.402;5.322;2022-11-23T01:12:28;12.50;;;8.60;;
11817;SDS011;5966;52.402;5.322;2022-11-23T01:14:55;15.07;;;9.30;;
11817;SDS011;5966;52.402;5.322;2022-11-23T01:17:23;10.90;;;8.43;;
11817;SDS011;5966;52.402;5.322;2022-11-23T01:19:51;12.07;;;9.73;;
11817;SDS011;5966;52.402;5.322;2022-11-23T01:22:19;13.53;;;9.60;;
11817;SDS011;5966;52.402;5.322;2022-11-23T01:24:48;12.70;;;8.57;;
11817;SDS011;5966;52.402;5.322;2022-11-23T01:27:16;13.50;;;9.90;;
11817;SDS011;5966;52.402;5.322;2022-11-23T01:29:45;13.17;;;10.30;;
11817;SDS011;5966;52.402;5.322;2022-11-23T01:32:13;15.00;;;9.60;;
11817;SDS011;5966;52.402;5.322;2022-11-23T01:34:41;16.00;;;9.73;;
11817;SDS011;5966;52.402;5.322;2022-11-23T01:37:09;15.07;;;10.07;;
11817;SDS011;5966;52.402;5.322;2022-11-23T01:39:36;11.90;;;9.73;;
11817;SDS011;5966;52.402;5.322;2022-11-23T01:42:04;14.43;;;10.27;;
11817;SDS011;5966;52.402;5.322;2022-11-23T01:44:34;15.03;;;10.17;;
11817;SDS011;5966;52.402;5.322;2022-11-23T01:47:05;12.87;;;10.07;;
11817;SDS011;5966;52.402;5.322;2022-11-23T01:49:34;14.20;;;10.23;;
11817;SDS011;5966;52.402;5.322;2022-11-23T01:52:06;16.83;;;10.80;;
11817;SDS011;5966;52.402;5.322;2022-11-23T01:54:38;14.97;;;10.87;;
11817;SDS011;5966;52.402;5.322;2022-11-23T01:57:09;14.87;;;10.13;;
11817;SDS011;5966;52.402;5.322;2022-11-23T01:59:43;17.90;;;10.33;;
11817;SDS011;5966;52.402;5.322;2022-11-23T02:02:14;13.83;;;10.17;;
11817;SDS011;5966;52.402;5.322;2022-11-23T02:04:42;14.83;;;10.00;;
11817;SDS011;5966;52.402;5.322;2022-11-23T02:07:13;16.70;;;10.53;;
11817;SDS011;5966;52.402;5.322;2022-11-23T02:09:43;13.30;;;9.70;;
11817;SDS011;5966;52.402;5.322;2022-11-23T02:12:13;15.20;;;10.13;;
11817;SDS011;5966;52.402;5.322;2022-11-23T02:14:41;14.20;;;9.77;;
11817;SDS011;5966;52.402;5.322;2022-11-23T02:17:09;13.63;;;9.80;;
11817;SDS011;5966;52.402;5.322;2022-11-23T02:19:40;14.53;;;8.97;;
11817;SDS011;5966;52.402;5.322;2022-11-23T02:22:19;14.27;;;9.63;;
11817;SDS011;5966;52.402;5.322;2022-11-23T02:24:54;11.33;;;8.47;;
11817;SDS011;5966;52.402;5.322;2022-11-23T02:27:24;11.93;;;8.53;;
11817;SDS011;5966;52.402;5.322;2022-11-23T02:29:53;10.17;;;7.90;;
11817;SDS011;5966;52.402;5.322;2022-11-23T02:32:22;10.37;;;8.07;;
11817;SDS011;5966;52.402;5.322;2022-11-23T02:34:51;11.60;;;8.00;;
11817;SDS011;5966;52.402;5.322;2022-11-23T02:37:19;10.10;;;8.37;;
11817;SDS011;5966;52.402;5.322;2022-11-23T02:39:48;14.17;;;8.80;;
11817;SDS011;5966;52.402;5.322;2022-11-23T02:42:17;14.03;;;8.80;;
11817;SDS011;5966;52.402;5.322;2022-11-23T02:44:47;11.10;;;8.87;;
11817;SDS011;5966;52.402;5.322;2022-11-23T02:47:20;13.70;;;8.97;;
11817;SDS011;5966;52.402;5.322;2022-11-23T02:49:48;13.17;;;9.03;;
11817;SDS011;5966;52.402;5.322;2022-11-23T02:52:16;11.53;;;8.40;;
11817;SDS011;5966;52.402;5.322;2022-11-23T02:54:45;14.63;;;9.00;;
11817;SDS011;5966;52.402;5.322;2022-11-23T02:57:13;9.87;;;8.30;;
11817;SDS011;5966;52.402;5.322;2022-11-23T02:59:41;10.90;;;8.13;;
11817;SDS011;5966;52.402;5.322;2022-11-23T03:02:10;12.73;;;8.83;;
11817;SDS011;5966;52.402;5.322;2022-11-23T03:04:38;14.33;;;9.30;;
11817;SDS011;5966;52.402;5.322;2022-11-23T03:07:06;13.63;;;8.70;;
11817;SDS011;5966;52.402;5.322;2022-11-23T03:09:34;12.37;;;8.93;;
11817;SDS011;5966;52.402;5.322;2022-11-23T03:12:02;10.93;;;8.50;;
11817;SDS011;5966;52.402;5.322;2022-11-23T03:14:30;13.60;;;7.80;;
11817;SDS011;5966;52.402;5.322;2022-11-23T03:16:58;14.87;;;8.30;;
11817;SDS011;5966;52.402;5.322;2022-11-23T03:19:27;11.80;;;8.43;;
11817;SDS011;5966;52.402;5.322;2022-11-23T03:21:56;12.90;;;7.97;;
11817;SDS011;5966;52.402;5.322;2022-11-23T03:24:24;9.53;;;8.53;;
11817;SDS011;5966;52.402;5.322;2022-11-23T03:26:51;12.60;;;8.37;;
11817;SDS011;5966;52.402;5.322;2022-11-23T03:29:19;14.93;;;8.97;;
11817;SDS011;5966;52.402;5.322;2022-11-23T03:31:51;13.23;;;8.67;;
11817;SDS011;5966;52.402;5.322;2022-11-23T03:34:19;12.90;;;8.50;;
11817;SDS011;5966;52.402;5.322;2022-11-23T03:36:48;12.53;;;8.70;;
11817;SDS011;5966;52.402;5.322;2022-11-23T03:39:16;14.67;;;8.73;;
11817;SDS011;5966;52.402;5.322;2022-11-23T03:41:44;12.87;;;8.80;;
11817;SDS011;5966;52.402;5.322;2022-11-23T03:44:12;12.20;;;9.10;;
11817;SDS011;5966;52.402;5.322;2022-11-23T03:46:40;11.83;;;8.63;;
11817;SDS011;5966;52.402;5.322;2022-11-23T03:49:08;11.97;;;8.63;;
11817;SDS011;5966;52.402;5.322;2022-11-23T03:51:36;10.73;;;8.03;;
11817;SDS011;5966;52.402;5.322;2022-11-23T03:54:05;11.97;;;8.77;;
11817;SDS011;5966;52.402;5.322;2022-11-23T03:56:33;11.87;;;8.97;;
11817;SDS011;5966;52.402;5.322;2022-11-23T03:59:01;11.00;;;9.20;;
11817;SDS011;5966;52.402;5.322;2022-11-23T04:01:29;13.80;;;9.50;;
11817;SDS011;5966;52.402;5.322;2022-11-23T04:03:57;12.50;;;9.03;;
11817;SDS011;5966;52.402;5.322;2022-11-23T04:06:25;11.20;;;9.07;;
11817;SDS011;5966;52.402;5.322;2022-11-23T04:08:53;11.97;;;9.33;;
11817;SDS011;5966;52.402;5.322;2022-11-23T04:11:28;14.10;;;9.50;;
11817;SDS011;5966;52.402;5.322;2022-11-23T04:13:56;13.47;;;9.30;;
11817;SDS011;5966;52.402;5.322;2022-11-23T04:16:24;11.50;;;8.97;;
11817;SDS011;5966;52.402;5.322;2022-11-23T04:18:52;12.50;;;10.17;;
11817;SDS011;5966;52.402;5.322;2022-11-23T04:21:20;11.20;;;9.00;;
11817;SDS011;5966;52.402;5.322;2022-11-23T04:23:48;10.77;;;8.93;;
11817;SDS011;5966;52.402;5.322;2022-11-23T04:26:16;11.67;;;9.20;;
11817;SDS011;5966;52.402;5.322;2022-11-23T04:28:45;14.50;;;9.63;;
11817;SDS011;5966;52.402;5.322;2022-11-23T04:31:13;11.63;;;9.50;;
11817;SDS011;5966;52.402;5.322;2022-11-23T04:33:41;10.60;;;8.90;;
11817;SDS011;5966;52.402;5.322;2022-11-23T04:36:09;10.00;;;7.90;;
11817;SDS011;5966;52.402;5.322;2022-11-23T04:38:37;11.73;;;8.17;;
11817;SDS011;5966;52.402;5.322;2022-11-23T04:41:05;9.57;;;8.00;;
11817;SDS011;5966;52.402;5.322;2022-11-23T04:43:33;10.77;;;7.83;;
11817;SDS011;5966;52.402;5.322;2022-11-23T04:46:02;8.40;;;7.50;;
11817;SDS011;5966;52.402;5.322;2022-11-23T04:48:30;9.33;;;6.90;;
11817;SDS011;5966;52.402;5.322;2022-11-23T04:50:58;7.50;;;6.40;;
11817;SDS011;5966;52.402;5.322;2022-11-23T04:53:26;8.00;;;6.30;;
11817;SDS011;5966;52.402;5.322;2022-11-23T04:55:54;6.83;;;5.83;;
11817;SDS011;5966;52.402;5.322;2022-11-23T04:58:22;6.17;;;5.57;;
11817;SDS011;5966;52.402;5.322;2022-11-23T05:00:51;6.97;;;5.60;;
11817;SDS011;5966;52.402;5.322;2022-11-23T05:03:21;11.73;;;6.70;;
11817;SDS011;5966;52.402;5.322;2022-11-23T05:05:49;8.10;;;5.77;;
11817;SDS011;5966;52.402;5.322;2022-11-23T05:08:17;7.83;;;6.20;;
11817;SDS011;5966;52.402;5.322;2022-11-23T05:10:45;8.43;;;5.87;;
11817;SDS011;5966;52.402;5.322;2022-11-23T05:13:12;8.30;;;5.17;;
11817;SDS011;5966;52.402;5.322;2022-11-23T05:15:41;8.47;;;6.13;;
11817;SDS011;5966;52.402;5.322;2022-11-23T05:18:09;10.00;;;5.70;;
11817;SDS011;5966;52.402;5.322;2022-11-23T05:20:39;8.17;;;5.90;;
11817;SDS011;5966;52.402;5.322;2022-11-23T05:23:08;9.97;;;5.90;;
11817;SDS011;5966;52.402;5.322;2022-11-23T05:25:36;8.30;;;5.83;;
11817;SDS011;5966;52.402;5.322;2022-11-23T05:28:04;7.90;;;5.33;;
11817;SDS011;5966;52.402;5.322;2022-11-23T05:30:52;8.93;;;5.50;;
11817;SDS011;5966;52.402;5.322;2022-11-23T05:33:20;6.53;;;5.23;;
11817;SDS011;5966;52.402;5.322;2022-11-23T05:35:49;7.53;;;4.77;;
11817;SDS011;5966;52.402;5.322;2022-11-23T05:38:17;7.30;;;4.70;;
11817;SDS011;5966;52.402;5.322;2022-11-23T05:40:45;9.80;;;4.83;;
11817;SDS011;5966;52.402;5.322;2022-11-23T05:43:13;6.90;;;4.53;;
11817;SDS011;5966;52.402;5.322;2022-11-23T05:45:41;6.97;;;4.43;;
11817;SDS011;5966;52.402;5.322;2022-11-23T05:48:09;7.73;;;4.83;;
11817;SDS011;5966;52.402;5.322;2022-11-23T05:50:37;6.27;;;4.73;;
11817;SDS011;5966;52.402;5.322;2022-11-23T05:53:06;4.73;;;3.93;;
11817;SDS011;5966;52.402;5.322;2022-11-23T05:55:35;6.23;;;4.57;;
11817;SDS011;5966;52.402;5.322;2022-11-23T05:58:03;7.00;;;4.83;;
11817;SDS011;5966;52.402;5.322;2022-11-23T06:00:31;8.33;;;4.83;;
11817;SDS011;5966;52.402;5.322;2022-11-23T06:02:59;7.67;;;4.60;;
11817;SDS011;5966;52.402;5.322;2022-11-23T06:05:27;6.37;;;4.70;;
11817;SDS011;5966;52.402;5.322;2022-11-23T06:07:56;7.33;;;4.93;;
11817;SDS011;5966;52.402;5.322;2022-11-23T06:10:25;9.63;;;4.53;;
11817;SDS011;5966;52.402;5.322;2022-11-23T06:12:53;7.50;;;4.63;;
11817;SDS011;5966;52.402;5.322;2022-11-23T06:15:21;6.03;;;4.50;;
11817;SDS011;5966;52.402;5.322;2022-11-23T06:17:49;8.47;;;5.00;;
11817;SDS011;5966;52.402;5.322;2022-11-23T06:20:17;9.07;;;5.10;;
11817;SDS011;5966;52.402;5.322;2022-11-23T06:22:50;8.97;;;4.80;;
11817;SDS011;5966;52.402;5.322;2022-11-23T06:25:18;8.33;;;5.07;;
11817;SDS011;5966;52.402;5.322;2022-11-23T06:27:52;6.37;;;4.90;;
11817;SDS011;5966;52.402;5.322;2022-11-23T06:30:20;9.20;;;4.93;;
11817;SDS011;5966;52.402;5.322;2022-11-23T06:32:48;7.50;;;4.97;;
11817;SDS011;5966;52.402;5.322;2022-11-23T06:35:16;8.10;;;4.90;;
11817;SDS011;5966;52.402;5.322;2022-11-23T06:37:46;7.13;;;5.00;;
11817;SDS011;5966;52.402;5.322;2022-11-23T06:40:14;7.43;;;5.20;;
11817;SDS011;5966;52.402;5.322;2022-11-23T06:42:42;9.40;;;5.00;;
11817;SDS011;5966;52.402;5.322;2022-11-23T06:45:11;9.33;;;5.80;;
11817;SDS011;5966;52.402;5.322;2022-11-23T06:47:39;9.20;;;5.17;;
11817;SDS011;5966;52.402;5.322;2022-11-23T06:50:07;9.33;;;5.30;;
11817;SDS011;5966;52.402;5.322;2022-11-23T06:52:35;12.10;;;5.40;;
11817;SDS011;5966;52.402;5.322;2022-11-23T06:55:04;8.67;;;5.00;;
11817;SDS011;5966;52.402;5.322;2022-11-23T06:57:32;7.50;;;5.00;;
11817;SDS011;5966;52.402;5.322;2022-11-23T06:59:59;6.63;;;4.80;;
11817;SDS011;5966;52.402;5.322;2022-11-23T07:02:29;9.17;;;4.90;;
11817;SDS011;5966;52.402;5.322;2022-11-23T07:04:57;7.83;;;4.90;;
11817;SDS011;5966;52.402;5.322;2022-11-23T07:07:24;9.73;;;5.03;;
11817;SDS011;5966;52.402;5.322;2022-11-23T07:09:53;5.33;;;4.80;;
11817;SDS011;5966;52.402;5.322;2022-11-23T07:12:23;8.33;;;5.77;;
11817;SDS011;5966;52.402;5.322;2022-11-23T07:14:51;9.83;;;5.83;;
11817;SDS011;5966;52.402;5.322;2022-11-23T07:17:18;9.13;;;6.13;;
11817;SDS011;5966;52.402;5.322;2022-11-23T07:19:48;7.47;;;5.60;;
11817;SDS011;5966;52.402;5.322;2022-11-23T07:22:15;9.47;;;5.83;;
11817;SDS011;5966;52.402;5.322;2022-11-23T07:24:43;9.37;;;5.43;;
11817;SDS011;5966;52.402;5.322;2022-11-23T07:27:12;11.17;;;5.77;;
11817;SDS011;5966;52.402;5.322;2022-11-23T07:29:40;10.37;;;5.87;;
11817;SDS011;5966;52.402;5.322;2022-11-23T07:32:08;9.40;;;5.07;;
11817;SDS011;5966;52.402;5.322;2022-11-23T07:34:36;8.20;;;4.00;;
11817;SDS011;5966;52.402;5.322;2022-11-23T07:37:05;6.50;;;3.63;;
11817;SDS011;5966;52.402;5.322;2022-11-23T07:39:33;9.43;;;3.30;;
11817;SDS011;5966;52.402;5.322;2022-11-23T07:42:21;10.17;;;3.37;;
11817;SDS011;5966;52.402;5.322;2022-11-23T07:45:01;10.27;;;2.93;;
11817;SDS011;5966;52.402;5.322;2022-11-23T07:47:29;8.07;;;2.90;;
11817;SDS011;5966;52.402;5.322;2022-11-23T07:49:57;7.23;;;3.13;;
11817;SDS011;5966;52.402;5.322;2022-11-23T07:52:26;6.87;;;2.50;;
11817;SDS011;5966;52.402;5.322;2022-11-23T07:54:54;8.83;;;2.13;;
11817;SDS011;5966;52.402;5.322;2022-11-23T07:57:22;6.33;;;2.40;;
11817;SDS011;5966;52.402;5.322;2022-11-23T07:59:50;13.50;;;2.67;;
11817;SDS011;5966;52.402;5.322;2022-11-23T08:02:18;10.03;;;2.83;;
11817;SDS011;5966;52.402;5.322;2022-11-23T08:04:46;8.50;;;2.20;;
11817;SDS011;5966;52.402;5.322;2022-11-23T08:07:14;8.00;;;2.20;;
11817;SDS011;5966;52.402;5.322;2022-11-23T08:09:43;9.97;;;2.30;;
11817;SDS011;5966;52.402;5.322;2022-11-23T08:12:12;12.27;;;2.40;;
11817;SDS011;5966;52.402;5.322;2022-11-23T08:14:39;4.07;;;2.53;;
11817;SDS011;5966;52.402;5.322;2022-11-23T08:17:07;6.77;;;2.23;;
11817;SDS011;5966;52.402;5.322;2022-11-23T08:19:36;8.07;;;2.20;;
11817;SDS011;5966;52.402;5.322;2022-11-23T08:22:04;10.23;;;2.50;;
11817;SDS011;5966;52.402;5.322;2022-11-23T08:24:31;10.70;;;3.00;;
11817;SDS011;5966;52.402;5.322;2022-11-23T08:27:01;7.50;;;2.30;;
11817;SDS011;5966;52.402;5.322;2022-11-23T08:29:29;9.37;;;2.57;;
11817;SDS011;5966;52.402;5.322;2022-11-23T08:31:57;7.87;;;2.37;;
11817;SDS011;5966;52.402;5.322;2022-11-23T08:34:25;12.13;;;2.37;;
11817;SDS011;5966;52.402;5.322;2022-11-23T08:36:54;9.93;;;2.43;;
11817;SDS011;5966;52.402;5.322;2022-11-23T08:39:22;6.33;;;3.23;;
11817;SDS011;5966;52.402;5.322;2022-11-23T08:41:50;10.67;;;2.43;;
11817;SDS011;5966;52.402;5.322;2022-11-23T08:44:20;5.77;;;2.20;;
11817;SDS011;5966;52.402;5.322;2022-11-23T08:46:48;8.67;;;2.70;;
11817;SDS011;5966;52.402;5.322;2022-11-23T08:49:16;10.03;;;2.37;;
11817;SDS011;5966;52.402;5.322;2022-11-23T08:51:43;9.40;;;2.37;;
11817;SDS011;5966;52.402;5.322;2022-11-23T08:54:15;7.40;;;2.60;;
11817;SDS011;5966;52.402;5.322;2022-11-23T08:56:43;8.97;;;2.47;;
11817;SDS011;5966;52.402;5.322;2022-11-23T08:59:11;7.73;;;2.33;;
11817;SDS011;5966;52.402;5.322;2022-11-23T09:01:40;10.30;;;2.60;;
11817;SDS011;5966;52.402;5.322;2022-11-23T09:04:08;6.87;;;2.40;;
11817;SDS011;5966;52.402;5.322;2022-11-23T09:06:41;6.03;;;2.00;;
11817;SDS011;5966;52.402;5.322;2022-11-23T09:09:09;8.73;;;2.57;;
11817;SDS011;5966;52.402;5.322;2022-11-23T09:11:37;11.57;;;2.80;;
11817;SDS011;5966;52.402;5.322;2022-11-23T09:14:05;9.63;;;2.33;;
11817;SDS011;5966;52.402;5.322;2022-11-23T09:16:33;6.53;;;2.07;;
11817;SDS011;5966;52.402;5.322;2022-11-23T09:19:02;8.20;;;2.43;;
11817;SDS011;5966;52.402;5.322;2022-11-23T09:21:31;10.17;;;2.93;;
11817;SDS011;5966;52.402;5.322;2022-11-23T09:24:00;6.87;;;2.73;;
11817;SDS011;5966;52.402;5.322;2022-11-23T09:26:28;10.37;;;2.57;;
11817;SDS011;5966;52.402;5.322;2022-11-23T09:28:59;9.03;;;2.37;;
11817;SDS011;5966;52.402;5.322;2022-11-23T09:31:27;6.23;;;1.90;;
11817;SDS011;5966;52.402;5.322;2022-11-23T09:33:55;9.77;;;2.20;;
11817;SDS011;5966;52.402;5.322;2022-11-23T09:36:24;9.93;;;2.20;;
11817;SDS011;5966;52.402;5.322;2022-11-23T09:38:52;5.80;;;2.40;;
11817;SDS011;5966;52.402;5.322;2022-11-23T09:41:26;8.50;;;2.23;;
11817;SDS011;5966;52.402;5.322;2022-11-23T09:44:15;10.40;;;2.97;;
11817;SDS011;5966;52.402;5.322;2022-11-23T09:46:54;9.33;;;2.60;;
11817;SDS011;5966;52.402;5.322;2022-11-23T09:49:35;8.47;;;2.17;;
11817;SDS011;5966;52.402;5.322;2022-11-23T09:52:13;8.03;;;2.50;;
11817;SDS011;5966;52.402;5.322;2022-11-23T09:54:44;10.40;;;2.90;;
11817;SDS011;5966;52.402;5.322;2022-11-23T09:57:15;8.80;;;2.90;;
11817;SDS011;5966;52.402;5.322;2022-11-23T09:59:48;6.47;;;2.50;;
11817;SDS011;5966;52.402;5.322;2022-11-23T10:02:20;7.93;;;2.40;;
11817;SDS011;5966;52.402;5.322;2022-11-23T10:04:50;7.60;;;2.30;;
11817;SDS011;5966;52.402;5.322;2022-11-23T10:07:28;13.73;;;2.70;;
11817;SDS011;5966;52.402;5.322;2022-11-23T10:10:08;7.67;;;2.30;;
11817;SDS011;5966;52.402;5.322;2022-11-23T10:12:46;7.17;;;2.27;;
11817;SDS011;5966;52.402;5.322;2022-11-23T10:15:21;7.00;;;2.23;;
11817;SDS011;5966;52.402;5.322;2022-11-23T10:20:50;13.90;;;2.77;;
11817;SDS011;5966;52.402;5.322;2022-11-23T10:23:29;7.17;;;2.10;;
11817;SDS011;5966;52.402;5.322;2022-11-23T10:26:06;12.70;;;2.60;;
11817;SDS011;5966;52.402;5.322;2022-11-23T10:28:39;10.33;;;2.70;;
11817;SDS011;5966;52.402;5.322;2022-11-23T10:31:10;9.80;;;2.37;;
11817;SDS011;5966;52.402;5.322;2022-11-23T10:33:43;9.27;;;2.20;;
11817;SDS011;5966;52.402;5.322;2022-11-23T10:36:19;7.67;;;2.07;;
11817;SDS011;5966;52.402;5.322;2022-11-23T10:38:50;9.37;;;2.10;;
11817;SDS011;5966;52.402;5.322;2022-11-23T10:41:21;6.93;;;2.03;;
11817;SDS011;5966;52.402;5.322;2022-11-23T10:43:50;8.87;;;2.30;;
11817;SDS011;5966;52.402;5.322;2022-11-23T10:46:23;10.93;;;1.93;;
11817;SDS011;5966;52.402;5.322;2022-11-23T10:48:54;6.67;;;2.13;;
11817;SDS011;5966;52.402;5.322;2022-11-23T10:51:34;10.13;;;1.97;;
11817;SDS011;5966;52.402;5.322;2022-11-23T10:54:04;7.53;;;1.97;;
11817;SDS011;5966;52.402;5.322;2022-11-23T10:56:44;9.60;;;2.50;;
11817;SDS011;5966;52.402;5.322;2022-11-23T10:59:24;8.77;;;2.70;;
11817;SDS011;5966;52.402;5.322;2022-11-23T11:02:01;9.40;;;2.13;;
11817;SDS011;5966;52.402;5.322;2022-11-23T11:04:41;7.27;;;1.90;;
11817;SDS011;5966;52.402;5.322;2022-11-23T11:07:10;7.23;;;2.40;;
11817;SDS011;5966;52.402;5.322;2022-11-23T11:09:51;7.17;;;2.13;;
11817;SDS011;5966;52.402;5.322;2022-11-23T11:12:20;7.20;;;2.13;;
11817;SDS011;5966;52.402;5.322;2022-11-23T11:14:56;9.07;;;2.30;;
11817;SDS011;5966;52.402;5.322;2022-11-23T11:17:36;8.60;;;2.47;;
11817;SDS011;5966;52.402;5.322;2022-11-23T11:22:57;12.03;;;2.20;;
11817;SDS011;5966;52.402;5.322;2022-11-23T11:25:29;7.40;;;2.13;;
11817;SDS011;5966;52.402;5.322;2022-11-23T11:28:01;7.23;;;2.30;;
11817;SDS011;5966;52.402;5.322;2022-11-23T11:30:31;7.27;;;2.30;;
11817;SDS011;5966;52.402;5.322;2022-11-23T11:33:12;8.57;;;2.57;;
11817;SDS011;5966;52.402;5.322;2022-11-23T11:35:45;8.67;;;2.83;;
11817;SDS011;5966;52.402;5.322;2022-11-23T11:38:16;8.90;;;2.50;;
11817;SDS011;5966;52.402;5.322;2022-11-23T11:40:52;9.60;;;2.43;;
11817;SDS011;5966;52.402;5.322;2022-11-23T11:43:22;13.67;;;2.80;;
11817;SDS011;5966;52.402;5.322;2022-11-23T11:46:04;9.53;;;2.30;;
11817;SDS011;5966;52.402;5.322;2022-11-23T11:48:56;11.40;;;2.80;;
11817;SDS011;5966;52.402;5.322;2022-11-23T11:51:31;6.33;;;1.90;;
11817;SDS011;5966;52.402;5.322;2022-11-23T11:54:04;7.13;;;2.30;;
11817;SDS011;5966;52.402;5.322;2022-11-23T11:56:41;8.67;;;2.37;;
11817;SDS011;5966;52.402;5.322;2022-11-23T11:59:12;5.77;;;2.20;;
11817;SDS011;5966;52.402;5.322;2022-11-23T12:01:47;6.43;;;2.63;;
11817;SDS011;5966;52.402;5.322;2022-11-23T12:04:24;8.57;;;2.40;;
11817;SDS011;5966;52.402;5.322;2022-11-23T12:06:59;7.47;;;2.33;;
11817;SDS011;5966;52.402;5.322;2022-11-23T12:09:33;9.57;;;2.50;;
11817;SDS011;5966;52.402;5.322;2022-11-23T12:12:10;9.57;;;2.63;;
11817;SDS011;5966;52.402;5.322;2022-11-23T12:14:41;6.77;;;2.13;;
11817;SDS011;5966;52.402;5.322;2022-11-23T12:17:17;5.87;;;2.27;;
11817;SDS011;5966;52.402;5.322;2022-11-23T12:20:02;5.33;;;1.90;;
11817;SDS011;5966;52.402;5.322;2022-11-23T12:22:40;8.43;;;1.93;;
11817;SDS011;5966;52.402;5.322;2022-11-23T12:25:15;6.30;;;2.00;;
11817;SDS011;5966;52.402;5.322;2022-11-23T12:27:57;6.97;;;2.20;;
11817;SDS011;5966;52.402;5.322;2022-11-23T12:30:34;7.43;;;1.90;;
11817;SDS011;5966;52.402;5.322;2022-11-23T12:33:16;6.63;;;1.70;;
11817;SDS011;5966;52.402;5.322;2022-11-23T12:36:04;6.00;;;1.70;;
11817;SDS011;5966;52.402;5.322;2022-11-23T12:38:50;7.10;;;1.90;;
11817;SDS011;5966;52.402;5.322;2022-11-23T12:41:22;5.23;;;1.93;;
11817;SDS011;5966;52.402;5.322;2022-11-23T12:44:06;9.63;;;1.90;;
11817;SDS011;5966;52.402;5.322;2022-11-23T12:47:08;8.83;;;1.87;;
11817;SDS011;5966;52.402;5.322;2022-11-23T12:49:42;7.83;;;2.13;;
11817;SDS011;5966;52.402;5.322;2022-11-23T12:52:23;6.83;;;2.20;;
11817;SDS011;5966;52.402;5.322;2022-11-23T12:55:00;4.17;;;1.77;;
11817;SDS011;5966;52.402;5.322;2022-11-23T12:57:45;6.00;;;1.60;;
11817;SDS011;5966;52.402;5.322;2022-11-23T13:00:20;3.50;;;1.40;;
11817;SDS011;5966;52.402;5.322;2022-11-23T13:06:04;5.00;;;1.63;;
11817;SDS011;5966;52.402;5.322;2022-11-23T13:11:51;6.23;;;1.57;;
11817;SDS011;5966;52.402;5.322;2022-11-23T13:14:34;5.73;;;1.60;;
11817;SDS011;5966;52.402;5.322;2022-11-23T13:17:14;4.13;;;1.23;;
11817;SDS011;5966;52.402;5.322;2022-11-23T13:20:11;4.90;;;1.60;;
11817;SDS011;5966;52.402;5.322;2022-11-23T13:22:51;9.77;;;1.80;;
11817;SDS011;5966;52.402;5.322;2022-11-23T13:25:22;7.03;;;1.70;;
11817;SDS011;5966;52.402;5.322;2022-11-23T13:27:55;4.20;;;1.90;;
11817;SDS011;5966;52.402;5.322;2022-11-23T13:30:34;5.77;;;1.70;;
11817;SDS011;5966;52.402;5.322;2022-11-23T13:33:31;4.47;;;1.20;;
11817;SDS011;5966;52.402;5.322;2022-11-23T13:36:04;5.07;;;1.93;;
11817;SDS011;5966;52.402;5.322;2022-11-23T13:38:44;6.93;;;2.70;;
11817;SDS011;5966;52.402;5.322;2022-11-23T13:44:18;7.47;;;1.87;;
11817;SDS011;5966;52.402;5.322;2022-11-23T13:47:01;7.37;;;2.27;;
11817;SDS011;5966;52.402;5.322;2022-11-23T13:49:35;3.80;;;1.77;;
11817;SDS011;5966;52.402;5.322;2022-11-23T13:52:26;4.80;;;1.43;;
11817;SDS011;5966;52.402;5.322;2022-11-23T13:55:05;5.33;;;1.57;;
11817;SDS011;5966;52.402;5.322;2022-11-23T14:01:02;5.43;;;1.93;;
11817;SDS011;5966;52.402;5.322;2022-11-23T14:03:47;5.10;;;1.47;;
11817;SDS011;5966;52.402;5.322;2022-11-23T14:06:37;5.07;;;1.83;;
11817;SDS011;5966;52.402;5.322;2022-11-23T14:09:13;5.70;;;2.00;;
11817;SDS011;5966;52.402;5.322;2022-11-23T14:14:46;2.43;;;1.30;;
11817;SDS011;5966;52.402;5.322;2022-11-23T14:20:48;7.57;;;1.80;;
11817;SDS011;5966;52.402;5.322;2022-11-23T14:23:34;3.80;;;1.57;;
11817;SDS011;5966;52.402;5.322;2022-11-23T14:26:18;4.30;;;1.30;;
11817;SDS011;5966;52.402;5.322;2022-11-23T14:28:57;5.90;;;2.03;;
11817;SDS011;5966;52.402;5.322;2022-11-23T14:31:42;3.70;;;1.13;;
11817;SDS011;5966;52.402;5.322;2022-11-23T14:34:19;6.47;;;1.57;;
11817;SDS011;5966;52.402;5.322;2022-11-23T14:36:59;3.93;;;1.57;;
11817;SDS011;5966;52.402;5.322;2022-11-23T14:39:39;6.13;;;2.07;;
11817;SDS011;5966;52.402;5.322;2022-11-23T14:42:25;3.13;;;1.40;;
11817;SDS011;5966;52.402;5.322;2022-11-23T14:44:56;4.97;;;1.57;;
11817;SDS011;5966;52.402;5.322;2022-11-23T14:47:30;2.83;;;1.40;;
11817;SDS011;5966;52.402;5.322;2022-11-23T14:49:59;4.27;;;1.40;;
11817;SDS011;5966;52.402;5.322;2022-11-23T14:52:27;4.10;;;1.50;;
11817;SDS011;5966;52.402;5.322;2022-11-23T14:54:59;5.00;;;1.67;;
11817;SDS011;5966;52.402;5.322;2022-11-23T14:57:33;3.60;;;1.37;;
11817;SDS011;5966;52.402;5.322;2022-11-23T15:00:19;3.63;;;1.47;;
11817;SDS011;5966;52.402;5.322;2022-11-23T15:02:51;3.17;;;2.17;;
11817;SDS011;5966;52.402;5.322;2022-11-23T15:05:22;4.03;;;1.80;;
11817;SDS011;5966;52.402;5.322;2022-11-23T15:07:55;6.03;;;1.87;;
11817;SDS011;5966;52.402;5.322;2022-11-23T15:10:29;5.60;;;2.23;;
11817;SDS011;5966;52.402;5.322;2022-11-23T15:13:14;3.37;;;1.10;;
11817;SDS011;5966;52.402;5.322;2022-11-23T15:15:45;6.20;;;1.57;;
11817;SDS011;5966;52.402;5.322;2022-11-23T15:18:24;4.33;;;1.50;;
11817;SDS011;5966;52.402;5.322;2022-11-23T15:20:53;2.73;;;1.30;;
11817;SDS011;5966;52.402;5.322;2022-11-23T15:23:23;2.27;;;1.40;;
11817;SDS011;5966;52.402;5.322;2022-11-23T15:25:57;4.47;;;2.23;;
11817;SDS011;5966;52.402;5.322;2022-11-23T15:28:29;3.87;;;1.17;;
11817;SDS011;5966;52.402;5.322;2022-11-23T15:31:15;3.30;;;1.37;;
11817;SDS011;5966;52.402;5.322;2022-11-23T15:33:54;5.47;;;1.63;;
11817;SDS011;5966;52.402;5.322;2022-11-23T15:36:25;3.17;;;1.50;;
11817;SDS011;5966;52.402;5.322;2022-11-23T15:38:56;4.10;;;1.70;;
11817;SDS011;5966;52.402;5.322;2022-11-23T15:41:28;6.53;;;1.87;;
11817;SDS011;5966;52.402;5.322;2022-11-23T15:43:57;2.37;;;1.23;;
11817;SDS011;5966;52.402;5.322;2022-11-23T15:46:27;5.97;;;1.70;;